createdAt,value
2023-05-12T00:01:57.875Z,1.60
2023-05-12T00:04:25.396Z,1.85
2023-05-12T00:06:52.278Z,1.58
2023-05-12T00:09:19.416Z,1.70
2023-05-12T00:11:48.392Z,1.90
2023-05-12T00:14:17.176Z,1.73
2023-05-12T00:16:44.141Z,2.03
2023-05-12T00:19:12.160Z,2.25
2023-05-12T00:21:39.188Z,1.90
2023-05-12T00:24:06.681Z,2.40
2023-05-12T00:26:33.612Z,1.80
2023-05-12T00:29:00.903Z,1.90
2023-05-12T00:31:27.859Z,1.58
2023-05-12T00:33:55.041Z,1.60
2023-05-12T00:36:22.545Z,1.67
2023-05-12T00:38:49.897Z,1.40
2023-05-12T00:41:16.947Z,1.65
2023-05-12T00:43:44.122Z,1.73
2023-05-12T00:46:12.539Z,1.40
2023-05-12T00:48:40.552Z,1.38
2023-05-12T00:51:07.640Z,1.60
2023-05-12T00:53:48.431Z,1.40
2023-05-12T00:56:18.649Z,1.50
2023-05-12T00:58:47.154Z,1.65
2023-05-12T01:01:16.034Z,1.83
2023-05-12T01:03:44.934Z,1.83
2023-05-12T01:06:23.274Z,3.05
2023-05-12T01:08:51.329Z,1.70
2023-05-12T01:11:19.043Z,2.15
2023-05-12T01:13:46.275Z,1.65
2023-05-12T01:16:15.153Z,2.05
2023-05-12T01:18:49.405Z,1.70
2023-05-12T01:21:16.938Z,3.00
2023-05-12T01:23:49.233Z,2.65
2023-05-12T01:26:16.553Z,3.30
2023-05-12T01:28:44.888Z,3.97
2023-05-12T01:31:12.609Z,1.90
2023-05-12T01:33:40.097Z,1.60
2023-05-12T01:36:07.777Z,2.35
2023-05-12T01:38:36.255Z,5.57
2023-05-12T01:41:03.424Z,3.38
2023-05-12T01:43:32.127Z,1.85
2023-05-12T01:45:59.303Z,3.35
2023-05-12T01:48:27.004Z,4.60
2023-05-12T01:50:54.989Z,2.17
2023-05-12T01:53:22.194Z,2.20
2023-05-12T01:55:49.129Z,2.17
2023-05-12T01:58:16.632Z,1.67
2023-05-12T02:00:43.629Z,2.58
2023-05-12T02:03:15.275Z,1.80
2023-05-12T02:05:42.285Z,2.28
2023-05-12T02:08:09.805Z,2.47
2023-05-12T02:10:36.890Z,2.20
2023-05-12T02:13:04.557Z,1.63
2023-05-12T02:15:33.709Z,3.38
2023-05-12T02:18:01.392Z,3.08
2023-05-12T02:20:29.723Z,4.63
2023-05-12T02:22:57.068Z,3.20
2023-05-12T02:25:24.149Z,2.80
2023-05-12T02:27:51.787Z,1.77
2023-05-12T02:30:19.040Z,2.03
2023-05-12T02:32:47.054Z,2.45
2023-05-12T02:35:14.130Z,1.83
2023-05-12T02:37:42.201Z,2.78
2023-05-12T02:40:09.625Z,1.80
2023-05-12T02:42:38.522Z,2.20
2023-05-12T02:45:06.058Z,1.63
2023-05-12T02:47:34.265Z,2.40
2023-05-12T02:50:01.257Z,1.90
2023-05-12T02:52:28.706Z,1.85
2023-05-12T02:54:56.239Z,1.80
2023-05-12T02:57:24.009Z,1.83
2023-05-12T02:59:50.918Z,1.80
2023-05-12T03:02:18.653Z,1.80
2023-05-12T03:04:45.611Z,1.70
2023-05-12T03:07:13.164Z,2.00
2023-05-12T03:09:40.405Z,2.90
2023-05-12T03:12:07.992Z,2.30
2023-05-12T03:14:35.112Z,1.90
2023-05-12T03:17:02.556Z,2.10
2023-05-12T03:19:29.559Z,1.90
2023-05-12T03:21:56.790Z,2.10
2023-05-12T03:24:24.524Z,1.92
2023-05-12T03:26:51.696Z,1.95
2023-05-12T03:29:18.654Z,1.90
2023-05-12T03:31:46.103Z,1.90
2023-05-12T03:34:14.253Z,1.92
2023-05-12T03:36:42.174Z,1.80
2023-05-12T03:39:09.611Z,2.10
2023-05-12T03:41:38.494Z,2.42
2023-05-12T03:44:05.995Z,1.88
2023-05-12T03:46:33.389Z,1.90
2023-05-12T03:49:00.692Z,2.53
2023-05-12T03:51:31.151Z,2.05
2023-05-12T03:53:58.260Z,3.20
2023-05-12T03:56:25.823Z,2.00
2023-05-12T03:58:53.530Z,2.05
2023-05-12T04:01:20.821Z,1.70
2023-05-12T04:03:48.792Z,1.83
2023-05-12T04:06:16.424Z,1.95
2023-05-12T04:08:43.342Z,1.92
2023-05-12T04:11:11.097Z,1.88
2023-05-12T04:13:38.034Z,1.95
2023-05-12T04:16:05.729Z,2.08
2023-05-12T04:18:32.744Z,1.88
2023-05-12T04:21:00.428Z,2.03
2023-05-12T04:23:27.329Z,2.05
2023-05-12T04:25:54.991Z,2.17
2023-05-12T04:28:22.003Z,1.98
2023-05-12T04:30:49.307Z,2.22
2023-05-12T04:33:16.209Z,2.45
2023-05-12T04:35:44.064Z,1.98
2023-05-12T04:38:13.399Z,2.25
2023-05-12T04:40:41.239Z,2.13
2023-05-12T04:43:08.401Z,2.00
2023-05-12T04:45:36.549Z,2.67
2023-05-12T04:48:04.176Z,2.15
2023-05-12T04:50:31.469Z,1.83
2023-05-12T04:52:59.062Z,1.80
2023-05-12T04:55:26.492Z,1.60
2023-05-12T04:57:53.537Z,1.90
2023-05-12T05:00:21.048Z,1.73
2023-05-12T05:02:48.898Z,1.70
2023-05-12T05:05:17.051Z,1.55
2023-05-12T05:07:44.020Z,1.75
2023-05-12T05:10:12.041Z,2.00
2023-05-12T05:12:41.671Z,1.90
2023-05-12T05:15:11.518Z,1.88
2023-05-12T05:17:38.790Z,1.80
2023-05-12T05:20:11.777Z,1.60
2023-05-12T05:22:39.858Z,1.52
2023-05-12T05:25:08.590Z,1.50
2023-05-12T05:27:35.627Z,2.30
2023-05-12T05:30:03.149Z,1.58
2023-05-12T05:32:30.813Z,1.77
2023-05-12T05:34:58.021Z,1.42
2023-05-12T05:37:25.099Z,1.60
2023-05-12T05:39:52.277Z,1.80
2023-05-12T05:42:19.256Z,1.42
2023-05-12T05:44:47.037Z,1.58
2023-05-12T05:47:14.764Z,1.77
2023-05-12T05:49:42.262Z,2.13
2023-05-12T05:52:09.394Z,1.80
2023-05-12T05:54:37.096Z,1.70
2023-05-12T05:57:04.431Z,1.90
2023-05-12T05:59:32.302Z,1.70
2023-05-12T06:01:59.465Z,1.60
2023-05-12T06:04:27.044Z,1.70
2023-05-12T06:06:53.981Z,1.25
2023-05-12T06:09:21.490Z,1.50
2023-05-12T06:11:49.295Z,1.48
2023-05-12T06:14:17.257Z,1.77
2023-05-12T06:16:44.288Z,1.67
2023-05-12T06:19:12.307Z,1.70
2023-05-12T06:21:41.444Z,1.20
2023-05-12T06:24:08.858Z,1.23
2023-05-12T06:26:36.499Z,1.25
2023-05-12T06:29:06.777Z,1.40
2023-05-12T06:31:34.576Z,1.80
2023-05-12T06:34:03.058Z,1.45
2023-05-12T06:36:30.563Z,2.05
2023-05-12T06:38:57.851Z,1.60
2023-05-12T06:41:25.233Z,1.50
2023-05-12T06:43:52.917Z,1.30
2023-05-12T06:46:27.777Z,1.52
2023-05-12T06:48:57.567Z,1.40
2023-05-12T06:51:24.537Z,1.40
2023-05-12T06:53:51.925Z,1.42
2023-05-12T06:56:18.958Z,1.50
2023-05-12T06:58:46.515Z,1.33
2023-05-12T07:01:13.513Z,1.50
2023-05-12T07:03:40.959Z,1.40
2023-05-12T07:06:08.173Z,1.23
2023-05-12T07:08:35.497Z,1.15
2023-05-12T07:11:02.480Z,1.20
2023-05-12T07:13:29.967Z,1.20
2023-05-12T07:15:56.895Z,1.23
2023-05-12T07:18:24.224Z,1.20
2023-05-12T07:20:51.119Z,1.30
2023-05-12T07:23:18.340Z,1.55
2023-05-12T07:25:45.468Z,1.38
2023-05-12T07:28:13.301Z,1.23
2023-05-12T07:30:40.236Z,1.15
2023-05-12T07:33:08.664Z,1.20
2023-05-12T07:35:35.651Z,1.45
2023-05-12T07:38:03.963Z,1.42
2023-05-12T07:40:30.819Z,1.00
2023-05-12T07:42:58.023Z,1.30
2023-05-12T07:45:25.250Z,1.55
2023-05-12T07:47:52.530Z,1.10
2023-05-12T07:50:19.811Z,0.85
2023-05-12T07:52:51.883Z,1.30
2023-05-12T07:55:21.388Z,0.90
2023-05-12T07:57:51.624Z,1.10
2023-05-12T08:00:19.284Z,1.25
2023-05-12T08:02:47.477Z,1.02
2023-05-12T08:05:14.680Z,1.30
2023-05-12T08:07:43.842Z,0.98
2023-05-12T08:10:13.125Z,0.82
2023-05-12T08:12:41.100Z,0.95
2023-05-12T08:15:08.990Z,0.93
2023-05-12T08:17:36.372Z,1.00
2023-05-12T08:20:06.716Z,1.10
2023-05-12T08:22:34.065Z,0.90
2023-05-12T08:25:00.949Z,0.88
2023-05-12T08:27:29.568Z,1.08
2023-05-12T08:29:56.479Z,1.10
2023-05-12T08:32:23.805Z,1.23
2023-05-12T08:34:50.713Z,0.90
2023-05-12T08:37:18.011Z,0.75
2023-05-12T08:39:44.885Z,1.00
2023-05-12T08:42:28.650Z,1.00
2023-05-12T08:44:55.900Z,1.10
2023-05-12T08:47:25.453Z,1.10
2023-05-12T08:50:00.885Z,0.80
2023-05-12T08:52:33.911Z,0.93
2023-05-12T08:55:03.292Z,1.10
2023-05-12T08:57:31.677Z,0.90
2023-05-12T09:00:01.441Z,0.93
2023-05-12T09:02:37.613Z,1.15
2023-05-12T09:05:12.094Z,1.13
2023-05-12T09:07:44.403Z,1.02
2023-05-12T09:10:33.554Z,0.90
2023-05-12T09:13:12.939Z,0.77
2023-05-12T09:15:42.953Z,0.90
2023-05-12T09:18:10.757Z,1.20
2023-05-12T09:20:37.716Z,0.80
2023-05-12T09:23:19.260Z,1.20
2023-05-12T09:25:49.748Z,1.10
2023-05-12T09:28:16.969Z,1.20
2023-05-12T09:30:43.787Z,1.05
2023-05-12T09:33:12.974Z,1.00
2023-05-12T09:35:43.447Z,1.05
2023-05-12T09:38:12.413Z,1.00
2023-05-12T09:40:39.813Z,1.02
2023-05-12T09:43:07.748Z,1.10
2023-05-12T09:45:42.390Z,1.10
2023-05-12T09:48:14.283Z,1.00
2023-05-12T09:50:49.718Z,1.20
2023-05-12T09:53:18.342Z,1.20
2023-05-12T09:55:48.836Z,1.17
2023-05-12T09:58:20.519Z,0.95
2023-05-12T10:03:18.733Z,0.95
2023-05-12T10:05:50.022Z,0.93
2023-05-12T10:08:22.252Z,1.20
2023-05-12T10:10:50.588Z,0.90
2023-05-12T10:13:26.508Z,1.00
2023-05-12T10:15:56.772Z,1.20
2023-05-12T10:18:26.471Z,1.15
2023-05-12T10:20:54.112Z,0.95
2023-05-12T10:23:21.763Z,1.10
2023-05-12T10:25:49.536Z,1.13
2023-05-12T10:28:17.415Z,1.10
2023-05-12T10:30:45.107Z,1.02
2023-05-12T10:33:12.591Z,1.00
2023-05-12T10:35:40.177Z,0.82
2023-05-12T10:38:08.923Z,1.05
2023-05-12T10:40:36.074Z,1.05
2023-05-12T10:43:03.649Z,1.38
2023-05-12T10:45:36.693Z,0.90
2023-05-12T10:48:07.585Z,1.13
2023-05-12T10:50:34.808Z,1.05
2023-05-12T10:53:02.166Z,0.93
2023-05-12T10:55:45.651Z,0.90
2023-05-12T10:58:13.597Z,0.95
2023-05-12T11:00:50.644Z,1.02
2023-05-12T11:03:25.790Z,1.00
2023-05-12T11:06:06.915Z,1.13
2023-05-12T11:08:37.716Z,0.90
2023-05-12T11:11:06.220Z,1.27
2023-05-12T11:13:33.677Z,1.20
2023-05-12T11:16:00.854Z,1.42
2023-05-12T11:18:28.122Z,1.15
2023-05-12T11:20:55.017Z,1.17
2023-05-12T11:23:27.397Z,0.88
2023-05-12T11:25:54.478Z,1.02
2023-05-12T11:28:21.976Z,1.10
2023-05-12T11:30:55.413Z,0.82
2023-05-12T11:33:23.473Z,0.98
2023-05-12T11:35:50.781Z,1.10
2023-05-12T11:38:18.850Z,0.95
2023-05-12T11:40:45.834Z,0.90
2023-05-12T11:43:15.299Z,0.90
2023-05-12T11:45:42.389Z,1.10
2023-05-12T11:48:12.107Z,1.00
2023-05-12T11:50:46.701Z,0.90
2023-05-12T11:53:18.843Z,1.20
2023-05-12T11:55:53.489Z,1.20
2023-05-12T11:58:26.816Z,1.05
2023-05-12T12:00:54.756Z,0.90
2023-05-12T12:03:22.048Z,0.80
2023-05-12T12:06:02.724Z,1.00
2023-05-12T12:08:29.984Z,0.90
2023-05-12T12:10:57.153Z,1.00
2023-05-12T12:13:26.078Z,0.90
2023-05-12T12:15:53.172Z,0.90
2023-05-12T12:18:22.950Z,0.85
2023-05-12T12:20:49.851Z,0.90
2023-05-12T12:23:17.355Z,0.82
2023-05-12T12:25:44.394Z,0.90
2023-05-12T12:28:11.615Z,0.95
2023-05-12T12:30:38.620Z,1.10
2023-05-12T12:33:06.213Z,1.17
2023-05-12T12:35:33.137Z,0.90
2023-05-12T12:38:00.516Z,1.00
2023-05-12T12:40:27.637Z,0.90
2023-05-12T12:42:55.208Z,0.77
2023-05-12T12:45:22.345Z,1.00
2023-05-12T12:47:52.580Z,0.80
2023-05-12T12:50:19.651Z,0.93
2023-05-12T12:52:48.194Z,1.08
2023-05-12T12:55:15.198Z,0.90
2023-05-12T12:57:42.475Z,0.70
2023-05-12T13:00:10.049Z,0.95
2023-05-12T13:02:37.856Z,1.00
2023-05-12T13:05:07.063Z,0.90
2023-05-12T13:07:34.588Z,1.10
2023-05-12T13:10:01.644Z,0.90
2023-05-12T13:12:30.589Z,0.88
2023-05-12T13:14:57.771Z,0.88
2023-05-12T13:17:24.879Z,0.90
2023-05-12T13:19:52.778Z,0.80
2023-05-12T13:22:20.564Z,0.80
2023-05-12T13:24:48.182Z,0.98
2023-05-12T13:27:15.527Z,0.90
2023-05-12T13:29:42.618Z,0.98
2023-05-12T13:32:10.025Z,1.00
2023-05-12T13:34:36.935Z,1.30
2023-05-12T13:37:04.182Z,1.23
2023-05-12T13:39:32.058Z,1.05
2023-05-12T13:41:59.826Z,0.90
2023-05-12T13:44:27.545Z,1.10
2023-05-12T13:46:54.827Z,1.00
2023-05-12T13:49:21.787Z,1.10
2023-05-12T13:51:49.005Z,0.98
2023-05-12T13:54:16.348Z,1.20
2023-05-12T13:56:43.797Z,1.40
2023-05-12T13:59:11.055Z,1.00
